Time;durP1;ratioP1;P1;durP2;ratioP2;P2;SDS_P1;SDS_P2;PMS_P1;PMS_P2;Temp;Humidity;BMP_temperature;BMP_pressure;BME280_temperature;BME280_humidity;BME280_pressure;Samples;Min_cycle;Max_cycle;Signal;HPM_P1;HPM_P2
2022/02/20 00:01:33;;;;;;;24.05;9.40;;;;;;;4.04;70.86;95125.28;5060852;28;20097;-50
2022/02/20 00:04:00;;;;;;;17.23;9.70;;;;;;;3.96;71.34;95129.56;5063081;28;20106;-47
2022/02/20 00:06:26;;;;;;;21.23;9.30;;;;;;;3.92;71.91;95122.38;5063273;28;20102;-46
2022/02/20 00:08:53;;;;;;;23.48;9.93;;;;;;;3.86;71.55;95123.91;5062425;28;20045;-50
2022/02/20 00:11:20;;;;;;;38.03;10.00;;;;;;;3.89;71.35;95139.00;5062141;28;20529;-46
2022/02/20 00:13:47;;;;;;;20.30;9.82;;;;;;;3.90;71.26;95130.28;5062573;28;20072;-50
2022/02/20 00:16:14;;;;;;;23.08;8.93;;;;;;;3.89;71.36;95118.41;5063325;28;20044;-49
2022/02/20 00:18:41;;;;;;;24.55;10.20;;;;;;;3.85;72.09;95117.13;5062113;28;20355;-46
2022/02/20 00:21:07;;;;;;;21.48;10.27;;;;;;;3.74;72.85;95120.19;5062005;28;20037;-47
2022/02/20 00:23:34;;;;;;;22.75;10.93;;;;;;;3.79;72.73;95123.81;5063643;28;20528;-48
2022/02/20 00:26:01;;;;;;;24.13;10.35;;;;;;;3.81;72.84;95108.19;5062493;28;20399;-46
2022/02/20 00:28:28;;;;;;;27.48;10.38;;;;;;;3.87;72.78;95125.50;5062399;28;20421;-46
2022/02/20 00:30:55;;;;;;;24.20;10.88;;;;;;;3.81;72.24;95106.41;5063233;28;20032;-47
2022/02/20 00:33:21;;;;;;;24.55;10.35;;;;;;;3.74;72.29;95099.59;5078763;28;20434;-45
2022/02/20 00:35:48;;;;;;;19.77;8.35;;;;;;;3.67;72.09;95096.13;5077543;28;20052;-47
2022/02/20 00:38:15;;;;;;;20.33;8.20;;;;;;;3.64;72.50;95092.16;5059919;28;20048;-46
2022/02/20 00:40:43;;;;;;;22.02;9.68;;;;;;;3.61;73.48;95101.03;5078399;28;20045;-46
2022/02/20 00:43:09;;;;;;;21.42;9.60;;;;;;;3.69;73.16;95107.06;5062959;28;20048;-48
2022/02/20 00:45:36;;;;;;;23.15;9.32;;;;;;;3.63;73.08;95109.38;5063552;28;20732;-46
2022/02/20 00:48:03;;;;;;;17.13;8.35;;;;;;;3.73;72.99;95113.47;5060936;28;20040;-46
2022/02/20 00:50:30;;;;;;;23.30;10.35;;;;;;;3.64;73.13;95099.88;5047281;28;20045;-46
2022/02/20 00:52:58;;;;;;;27.38;9.38;;;;;;;3.62;74.00;95105.22;5047476;28;20125;-47
2022/02/20 00:55:28;;;;;;;23.17;8.57;;;;;;;3.64;73.68;95110.97;5047376;28;20052;-48
2022/02/20 00:57:54;;;;;;;25.30;12.90;;;;;;;3.62;73.49;95118.09;5061767;28;20057;-45
2022/02/20 01:00:21;;;;;;;22.92;10.82;;;;;;;3.52;73.52;95103.91;5056293;28;20056;-47
2022/02/20 01:02:49;;;;;;;30.67;13.18;;;;;;;3.63;73.54;95119.66;5045401;28;20056;-46
2022/02/20 01:05:15;;;;;;;23.70;10.45;;;;;;;3.58;73.54;95103.97;5061367;28;20040;-47
2022/02/20 01:07:44;;;;;;;22.30;10.60;;;;;;;3.56;73.77;95108.50;5062162;28;20063;-46
2022/02/20 01:10:14;;;;;;;16.30;7.57;;;;;;;3.54;74.33;95095.00;5060838;28;20502;-48
2022/02/20 01:12:41;;;;;;;14.27;6.93;;;;;;;3.57;74.17;95104.94;5061018;28;20052;-46
2022/02/20 01:15:10;;;;;;;19.48;7.47;;;;;;;3.59;74.38;95108.13;5061216;28;20525;-47
2022/02/20 01:17:37;;;;;;;20.83;9.13;;;;;;;3.66;74.32;95120.31;5046072;28;20055;-46
2022/02/20 01:20:06;;;;;;;20.92;9.73;;;;;;;3.68;74.14;95115.78;5060938;28;20298;-46
2022/02/20 01:22:33;;;;;;;19.20;8.90;;;;;;;3.44;74.26;95090.13;5060120;28;20052;-46
2022/02/20 01:24:59;;;;;;;18.92;8.55;;;;;;;3.49;74.92;95107.59;5060830;28;20126;-46
2022/02/20 01:27:27;;;;;;;15.45;8.02;;;;;;;3.42;75.26;95111.88;5058234;28;20044;-47
2022/02/20 01:29:54;;;;;;;11.77;5.38;;;;;;;3.32;76.01;95111.38;5074753;28;20051;-46
2022/02/20 01:32:21;;;;;;;12.18;6.90;;;;;;;3.31;76.58;95109.78;5059963;28;20411;-45
2022/02/20 01:34:48;;;;;;;18.08;6.38;;;;;;;3.32;76.79;95112.16;5073669;28;20769;-47
2022/02/20 01:37:14;;;;;;;17.92;8.77;;;;;;;3.33;76.95;95118.09;5075520;28;20055;-46
2022/02/20 01:39:42;;;;;;;20.33;8.15;;;;;;;3.36;76.77;95115.97;5075186;28;20048;-48
2022/02/20 01:42:15;;;;;;;13.60;7.03;;;;;;;3.38;76.83;95108.06;5059071;28;20064;-46
2022/02/20 01:44:41;;;;;;;12.10;6.35;;;;;;;3.35;77.44;95111.00;5058660;28;20036;-48
2022/02/20 01:47:13;;;;;;;18.05;8.02;;;;;;;3.44;77.38;95115.09;5059763;28;20395;-47
2022/02/20 01:49:41;;;;;;;16.85;7.78;;;;;;;3.47;77.16;95109.56;5076555;28;20051;-46
2022/02/20 01:52:08;;;;;;;17.55;8.55;;;;;;;3.51;76.79;95105.69;5075009;28;20094;-48
2022/02/20 01:54:35;;;;;;;14.43;9.07;;;;;;;3.47;76.74;95104.41;5057471;28;20827;-48
2022/02/20 01:57:03;;;;;;;18.25;8.52;;;;;;;3.50;76.84;95096.34;5021196;28;1138251;-48
2022/02/20 01:59:46;;;;;;;16.58;7.82;;;;;;;3.47;77.03;95088.97;5073365;28;20044;-47
2022/02/20 02:02:48;;;;;;;16.75;6.68;;;;;;;3.53;76.92;95093.41;5059265;28;20072;-46
2022/02/20 02:05:33;;;;;;;29.52;10.85;;;;;;;3.57;76.70;95099.78;5061079;28;20406;-48
2022/02/20 02:08:00;;;;;;;35.97;12.70;;;;;;;3.60;76.59;95104.59;5059412;28;20059;-49
2022/02/20 02:10:45;;;;;;;34.42;13.00;;;;;;;3.47;76.38;95088.97;5076611;28;20032;-47
2022/02/20 02:13:39;;;;;;;23.02;10.38;;;;;;;3.51;76.36;95095.38;5056583;28;20040;-48
2022/02/20 02:16:38;;;;;;;19.73;8.27;;;;;;;3.46;76.22;95100.25;5057168;28;20087;-46
2022/02/20 02:19:23;;;;;;;20.00;9.80;;;;;;;3.37;76.74;95078.97;5060347;28;20055;-47
2022/02/20 02:22:27;;;;;;;23.48;9.32;;;;;;;3.39;77.08;95086.50;5056872;28;20057;-46
2022/02/20 02:25:15;;;;;;;;;;;;;;;3.25;77.60;95078.59;5048085;28;20057;-46
2022/02/20 02:27:46;;;;;;;24.67;9.85;;;;;;;3.17;77.97;95062.47;5045862;28;20367;-48
2022/02/20 02:30:30;;;;;;;17.27;10.10;;;;;;;3.15;78.20;95054.94;5074136;28;20413;-46
2022/02/20 02:32:56;;;;;;;17.85;8.75;;;;;;;3.10;78.45;95051.28;5044107;28;20048;-47
2022/02/20 02:35:24;;;;;;;20.30;8.55;;;;;;;3.11;78.61;95038.22;5061057;28;20051;-47
2022/02/20 02:37:53;;;;;;;23.58;7.13;;;;;;;3.10;78.84;95044.38;5075714;28;20406;-47
2022/02/20 02:40:21;;;;;;;16.95;7.93;;;;;;;3.09;79.18;95050.50;5075958;28;20040;-48
2022/02/20 02:42:49;;;;;;;19.88;7.25;;;;;;;3.12;79.39;95032.13;5060018;28;20052;-47
2022/02/20 02:45:15;;;;;;;18.15;6.65;;;;;;;3.16;78.99;95035.94;5075548;28;20067;-50
2022/02/20 02:47:46;;;;;;;16.48;6.43;;;;;;;3.02;78.56;94998.13;5073062;28;20119;-46
2022/02/20 02:50:15;;;;;;;18.83;6.75;;;;;;;3.20;78.91;95026.84;5058275;28;20040;-46
2022/02/20 02:52:42;;;;;;;14.65;7.25;;;;;;;3.20;78.75;95032.00;5044765;28;20128;-47
2022/02/20 02:55:09;;;;;;;14.90;6.70;;;;;;;3.02;80.00;95039.31;5059825;28;20044;-48
2022/02/20 02:57:36;;;;;;;19.27;7.78;;;;;;;3.13;79.80;95036.28;5056902;28;20063;-49
2022/02/20 03:00:03;;;;;;;19.08;7.82;;;;;;;3.16;79.76;95041.06;5056879;28;20037;-47
2022/02/20 03:02:30;;;;;;;25.60;10.98;;;;;;;3.16;80.02;95035.94;5071392;28;20048;-47
2022/02/20 03:05:03;;;;;;;20.50;9.13;;;;;;;3.18;79.78;95026.25;5058549;28;20056;-47
2022/02/20 03:07:32;;;;;;;13.75;6.30;;;;;;;3.19;80.26;95039.94;5058684;28;20482;-47
2022/02/20 03:09:59;;;;;;;23.35;8.40;;;;;;;3.14;80.10;95039.66;5060012;28;20048;-46
2022/02/20 03:12:26;;;;;;;15.10;7.50;;;;;;;3.13;80.26;95028.56;5072610;28;20528;-47
2022/02/20 03:14:53;;;;;;;18.92;5.53;;;;;;;3.22;80.13;95027.50;5076102;28;20066;-46
2022/02/20 03:17:22;;;;;;;13.38;6.00;;;;;;;3.29;79.77;95029.34;5059577;28;20044;-46
2022/02/20 03:19:48;;;;;;;15.48;6.28;;;;;;;3.35;79.82;95013.97;5043149;28;20044;-47
2022/02/20 03:22:15;;;;;;;18.58;6.53;;;;;;;3.41;79.46;95017.59;5042780;28;20052;-47
2022/02/20 03:24:42;;;;;;;14.95;6.20;;;;;;;3.45;79.34;95013.69;5059767;28;20490;-48
2022/02/20 03:27:10;;;;;;;26.83;7.40;;;;;;;3.48;79.17;95013.31;5075380;28;20048;-48
2022/02/20 03:29:37;;;;;;;25.83;8.35;;;;;;;3.41;79.04;95009.88;5057855;28;20041;-45
2022/02/20 03:32:06;;;;;;;40.03;17.30;;;;;;;3.49;78.72;95020.06;5047389;28;20076;-49
2022/02/20 03:34:34;;;;;;;29.45;11.85;;;;;;;3.40;78.73;95005.69;5058384;28;20119;-45
2022/02/20 03:37:02;;;;;;;30.42;12.40;;;;;;;3.23;79.25;95036.81;5057806;28;20511;-45
2022/02/20 03:39:34;;;;;;;22.10;9.48;;;;;;;3.09;79.82;95040.19;5047437;28;20126;-46
2022/02/20 03:42:06;;;;;;;21.80;9.57;;;;;;;3.07;79.99;95026.72;5077246;28;20068;-46
2022/02/20 03:45:06;;;;;;;34.13;10.00;;;;;;;3.02;80.32;95029.00;5030102;28;20049;-46
2022/02/20 03:47:39;;;;;;;16.05;7.80;;;;;;;2.96;81.00;95020.25;5060737;28;20051;-47
2022/02/20 03:50:07;;;;;;;19.77;10.23;;;;;;;3.04;80.97;95011.63;5063666;28;20139;-46
2022/02/20 03:52:36;;;;;;;23.92;11.38;;;;;;;3.03;81.38;95015.19;5049615;28;20167;-46
2022/02/20 03:55:08;;;;;;;18.38;9.35;;;;;;;3.08;81.23;95012.06;5063902;28;20071;-46
2022/02/20 03:57:39;;;;;;;27.27;10.93;;;;;;;3.04;81.67;95007.28;5061063;28;20121;-47
2022/02/20 04:00:11;;;;;;;32.40;14.48;;;;;;;2.97;81.56;95027.00;5060225;28;20055;-49
2022/02/20 04:02:42;;;;;;;27.55;12.55;;;;;;;3.00;82.24;95056.72;5061156;28;20401;-46
2022/02/20 04:05:14;;;;;;;25.23;11.00;;;;;;;3.13;81.77;95067.16;5047522;28;20055;-46
2022/02/20 04:07:42;;;;;;;24.48;11.65;;;;;;;3.11;81.78;95069.13;5063355;28;20043;-45
2022/02/20 04:10:11;;;;;;;28.73;13.85;;;;;;;2.99;81.89;95061.06;5061639;28;20044;-46
2022/02/20 04:12:38;;;;;;;16.80;7.90;;;;;;;2.98;82.50;95089.53;5078275;28;20041;-45
2022/02/20 04:15:12;;;;;;;13.98;7.25;;;;;;;2.84;83.11;95099.63;5048522;28;20060;-46
2022/02/20 04:17:45;;;;;;;20.42;6.95;;;;;;;2.75;83.75;95080.09;5061198;28;20407;-46
2022/02/20 04:20:16;;;;;;;14.27;6.95;;;;;;;2.78;85.45;95094.41;5078251;28;20040;-47
2022/02/20 04:22:45;;;;;;;16.75;7.22;;;;;;;2.78;85.94;95108.06;5060081;28;20049;-46
2022/02/20 04:25:17;;;;;;;15.35;6.40;;;;;;;2.74;85.33;95106.81;5045441;28;20063;-48
2022/02/20 04:27:45;;;;;;;17.10;7.90;;;;;;;2.78;84.42;95104.69;5061905;28;20045;-46
2022/02/20 04:30:18;;;;;;;19.73;8.55;;;;;;;2.85;84.02;95101.25;5061826;28;20052;-47
2022/02/20 04:32:52;;;;;;;18.20;9.95;;;;;;;2.95;83.87;95100.19;5061316;28;20470;-47
2022/02/20 04:35:19;;;;;;;20.92;10.10;;;;;;;3.04;83.67;95119.69;5076156;28;20067;-46
2022/02/20 04:37:47;;;;;;;15.35;7.53;;;;;;;3.09;83.22;95122.53;5076901;28;20080;-46
2022/02/20 04:40:13;;;;;;;20.13;9.40;;;;;;;3.13;82.82;95128.94;5076347;28;20041;-46
2022/02/20 04:42:51;;;;;;;19.05;10.27;;;;;;;3.06;82.36;95121.13;5061117;28;20794;-46
2022/02/20 04:45:19;;;;;;;19.42;7.93;;;;;;;3.16;81.91;95138.88;5058152;28;20057;-46
2022/02/20 04:47:46;;;;;;;21.77;9.07;;;;;;;3.23;81.81;95144.91;5044878;28;20148;-46
2022/02/20 04:50:17;;;;;;;23.23;10.15;;;;;;;3.25;81.19;95150.69;5060848;28;20036;-46
2022/02/20 04:52:46;;;;;;;17.20;9.82;;;;;;;3.29;81.14;95142.63;5047717;28;20551;-46
2022/02/20 04:55:26;;;;;;;22.48;10.25;;;;;;;3.21;81.13;95141.72;5060591;28;20186;-48
2022/02/20 04:57:53;;;;;;;52.72;19.30;;;;;;;3.31;81.59;95151.75;5060316;28;20476;-45
2022/02/20 05:00:21;;;;;;;28.17;9.05;;;;;;;3.23;82.54;95159.56;5074727;28;20041;-46
2022/02/20 05:03:11;;;;;;;33.22;13.90;;;;;;;3.30;82.37;95159.69;5053432;28;20057;-46
2022/02/20 05:05:47;;;;;;;36.08;13.45;;;;;;;3.28;82.46;95164.19;5061088;28;20107;-48
2022/02/20 05:08:19;;;;;;;28.48;11.35;;;;;;;3.28;82.50;95156.44;5057650;28;20110;-48
2022/02/20 05:10:46;;;;;;;34.35;13.45;;;;;;;3.30;81.97;95157.09;5075824;28;20045;-50
2022/02/20 05:13:14;;;;;;;24.88;12.00;;;;;;;3.37;81.31;95150.25;5058386;28;20049;-47
2022/02/20 05:15:41;;;;;;;27.63;11.75;;;;;;;3.39;81.30;95158.59;5076115;28;20049;-47
2022/02/20 05:18:11;;;;;;;25.67;13.57;;;;;;;3.35;81.69;95147.88;5075459;28;20043;-47
2022/02/20 05:20:42;;;;;;;35.63;12.75;;;;;;;3.23;82.74;95144.13;5044857;28;20049;-46
2022/02/20 05:23:09;;;;;;;39.75;14.60;;;;;;;3.19;83.02;95148.84;5058488;28;20043;-49
2022/02/20 05:25:36;;;;;;;32.05;14.05;;;;;;;3.20;82.99;95150.41;5059716;28;20068;-46
2022/02/20 05:28:04;;;;;;;24.33;13.90;;;;;;;3.15;82.86;95137.31;5075608;28;20037;-48
2022/02/20 05:30:36;;;;;;;36.28;17.65;;;;;;;3.25;83.00;95158.41;5058478;28;20043;-46
2022/02/20 05:33:16;;;;;;;39.33;15.52;;;;;;;3.27;82.81;95160.81;5046430;28;20053;-46
2022/02/20 05:35:43;;;;;;;26.38;13.15;;;;;;;3.27;82.40;95167.75;5043546;28;20045;-46
2022/02/20 05:38:11;;;;;;;27.55;13.32;;;;;;;3.22;82.84;95183.72;5060475;28;20520;-45
2022/02/20 05:40:40;;;;;;;34.22;15.52;;;;;;;3.18;83.21;95175.53;5060714;28;21330;-49
2022/02/20 05:43:11;;;;;;;32.67;16.58;;;;;;;3.16;83.41;95169.78;5060003;28;20114;-46
2022/02/20 05:45:38;;;;;;;35.00;15.40;;;;;;;3.18;83.30;95178.09;5047386;28;20048;-46
2022/02/20 05:48:13;;;;;;;38.97;15.77;;;;;;;3.16;83.53;95174.91;5075339;28;20044;-46
2022/02/20 05:51:09;;;;;;;40.75;17.25;;;;;;;3.23;83.49;95175.03;5006172;28;20050;-48
2022/02/20 05:53:48;;;;;;;40.38;15.85;;;;;;;3.36;82.96;95184.69;5044685;28;20045;-45
2022/02/20 05:56:18;;;;;;;37.40;15.13;;;;;;;3.45;82.28;95193.94;5059312;28;20186;-48
2022/02/20 05:58:55;;;;;;;38.95;17.10;;;;;;;3.55;81.92;95194.47;5073785;28;20037;-47
2022/02/20 06:01:21;;;;;;;33.63;16.35;;;;;;;3.63;81.27;95207.25;5056946;28;20487;-46
2022/02/20 06:03:56;;;;;;;32.22;15.43;;;;;;;3.66;81.05;95215.63;5042570;28;20055;-48
2022/02/20 06:06:49;;;;;;;37.85;17.10;;;;;;;3.60;81.40;95212.78;5050146;28;20045;-47
2022/02/20 06:09:25;;;;;;;44.08;20.67;;;;;;;3.50;82.00;95201.16;5060057;28;20094;-47
2022/02/20 06:11:57;;;;;;;33.58;15.00;;;;;;;3.44;82.44;95187.19;5059674;28;20093;-45
2022/02/20 06:14:43;;;;;;;31.88;14.70;;;;;;;3.45;83.03;95178.47;5061396;28;20106;-47
2022/02/20 06:17:19;;;;;;;29.15;12.88;;;;;;;3.47;83.48;95176.53;5046832;28;20145;-46
2022/02/20 06:20:05;;;;;;;30.15;14.13;;;;;;;3.53;83.31;95180.97;5058492;28;20182;-46
2022/02/20 06:22:43;;;;;;;26.02;13.75;;;;;;;3.43;83.21;95139.25;5060372;28;20136;-45
2022/02/20 06:25:23;;;;;;;33.25;13.35;;;;;;;3.70;83.14;95162.75;5059068;28;20060;-48
2022/02/20 06:28:02;;;;;;;34.55;17.00;;;;;;;3.84;82.59;95151.63;5046175;28;20560;-47
2022/02/20 06:30:30;;;;;;;38.65;14.90;;;;;;;4.01;82.49;95163.31;5044174;28;20049;-46
2022/02/20 06:32:57;;;;;;;55.40;21.67;;;;;;;4.04;82.02;95157.00;5058823;28;20136;-47
2022/02/20 06:35:24;;;;;;;32.47;14.13;;;;;;;4.20;80.72;95172.25;5059417;28;20130;-47
2022/02/20 06:37:50;;;;;;;29.80;13.15;;;;;;;4.31;79.55;95173.53;5058416;28;20114;-48
2022/02/20 06:40:20;;;;;;;29.83;12.68;;;;;;;4.39;79.40;95165.69;5058462;28;20056;-45
2022/02/20 06:42:49;;;;;;;34.45;12.10;;;;;;;4.45;79.12;95163.34;5058671;28;20136;-46
2022/02/20 06:45:19;;;;;;;35.40;15.82;;;;;;;4.57;79.33;95161.88;5046125;28;20049;-50
2022/02/20 06:48:05;;;;;;;34.15;13.93;;;;;;;4.68;78.26;95147.69;5044088;28;21053;-49
2022/02/20 06:50:52;;;;;;;31.58;13.63;;;;;;;4.91;77.63;95168.13;5058413;28;20178;-49
2022/02/20 06:53:38;;;;;;;30.75;15.00;;;;;;;4.95;76.44;95169.34;5076587;28;20087;-46
2022/02/20 06:56:31;;;;;;;31.65;14.75;;;;;;;5.20;75.42;95189.56;5050942;28;20056;-47
2022/02/20 06:58:58;;;;;;;29.42;12.85;;;;;;;5.26;75.45;95187.03;5059852;28;20041;-47
2022/02/20 07:01:25;;;;;;;34.78;15.82;;;;;;;5.35;74.55;95190.28;5053893;28;20048;-49
2022/02/20 07:03:52;;;;;;;35.50;15.77;;;;;;;5.55;73.31;95205.91;5060481;28;20847;-49
2022/02/20 07:06:19;;;;;;;35.35;16.48;;;;;;;5.61;72.78;95199.19;5060751;28;20063;-46
2022/02/20 07:08:46;;;;;;;33.00;16.35;;;;;;;5.71;72.62;95202.22;5058270;28;20044;-46
2022/02/20 07:11:12;;;;;;;72.25;33.67;;;;;;;5.80;73.22;95198.47;5061006;28;20059;-50
2022/02/20 07:13:39;;;;;;;52.53;24.48;;;;;;;5.86;74.64;95191.75;5063972;28;20041;-46
2022/02/20 07:16:06;;;;;;;36.65;19.50;;;;;;;6.02;75.15;95180.31;5061178;28;20066;-46
2022/02/20 07:18:32;;;;;;;34.80;13.88;;;;;;;6.13;75.54;95171.97;5064135;28;20044;-49
2022/02/20 07:20:59;;;;;;;35.08;14.63;;;;;;;6.19;76.16;95166.03;5063618;28;20045;-48
2022/02/20 07:23:26;;;;;;;26.85;13.55;;;;;;;6.22;76.04;95155.28;5063977;28;20509;-46
2022/02/20 07:25:53;;;;;;;28.65;13.93;;;;;;;6.28;75.42;95164.88;5059926;28;20055;-46
2022/02/20 07:28:20;;;;;;;32.88;15.35;;;;;;;6.28;75.29;95170.06;5062850;28;20490;-47
2022/02/20 07:30:47;;;;;;;34.28;14.48;;;;;;;6.40;75.29;95175.44;5049662;28;20461;-49
2022/02/20 07:33:15;;;;;;;33.22;13.20;;;;;;;6.53;74.91;95177.25;5050788;28;20049;-47
2022/02/20 07:35:42;;;;;;;58.47;26.77;;;;;;;6.68;73.40;95159.75;5055196;28;20048;-46
2022/02/20 07:38:08;;;;;;;78.72;40.80;;;;;;;6.85;72.06;95154.19;5057649;28;20045;-47
2022/02/20 07:40:35;;;;;;;28.60;15.95;;;;;;;7.03;71.24;95151.78;5054556;28;20052;-47
2022/02/20 07:43:02;;;;;;;39.55;14.63;;;;;;;7.16;70.58;95134.63;5049090;28;20099;-48
2022/02/20 07:45:29;;;;;;;24.52;13.80;;;;;;;7.30;70.27;95136.22;5058455;28;20054;-50
2022/02/20 07:48:02;;;;;;;37.25;18.98;;;;;;;7.39;70.27;95152.34;5055724;28;20052;-50
2022/02/20 07:50:35;;;;;;;29.92;15.27;;;;;;;7.55;70.38;95148.53;5053589;28;20041;-46
2022/02/20 07:53:03;;;;;;;24.42;12.90;;;;;;;7.73;69.83;95147.88;5056909;28;20127;-46
2022/02/20 07:55:31;;;;;;;36.92;14.77;;;;;;;7.81;69.06;95138.06;5048666;28;20049;-48
2022/02/20 07:58:05;;;;;;;21.38;11.25;;;;;;;8.03;67.96;95155.91;5049987;28;20041;-46
2022/02/20 08:00:31;;;;;;;28.83;12.65;;;;;;;8.20;66.99;95141.47;5050447;28;20045;-46
2022/02/20 08:03:02;;;;;;;37.75;12.02;;;;;;;8.29;64.86;95154.22;5051826;28;20037;-49
2022/02/20 08:05:29;;;;;;;41.67;16.65;;;;;;;8.38;64.39;95147.75;5050143;28;20422;-47
2022/02/20 08:07:56;;;;;;;36.63;16.95;;;;;;;8.50;64.04;95130.53;5053299;28;20997;-46
2022/02/20 08:10:23;;;;;;;31.83;14.35;;;;;;;8.52;63.52;95127.75;5053479;28;20831;-48
2022/02/20 08:12:50;;;;;;;23.95;12.45;;;;;;;8.70;62.80;95129.63;5053935;28;20040;-47
2022/02/20 08:15:16;;;;;;;27.15;12.60;;;;;;;8.78;62.22;95121.53;5052771;28;20106;-48
2022/02/20 08:17:45;;;;;;;28.88;11.68;;;;;;;8.93;62.01;95129.81;5051411;28;20135;-45
2022/02/20 08:20:13;;;;;;;27.75;11.35;;;;;;;9.08;61.04;95116.50;5060751;28;20048;-46
2022/02/20 08:22:41;;;;;;;35.53;16.73;;;;;;;9.24;59.72;95115.16;5059432;28;20429;-48
2022/02/20 08:25:10;;;;;;;26.95;10.07;;;;;;;9.32;58.59;95127.84;5061003;28;20046;-47
2022/02/20 08:27:37;;;;;;;19.83;10.02;;;;;;;9.36;57.92;95131.63;5062830;28;20047;-49
2022/02/20 08:30:10;;;;;;;17.13;9.18;;;;;;;9.28;57.94;95131.91;5060447;28;20047;-50
2022/02/20 08:32:37;;;;;;;26.08;11.20;;;;;;;9.26;59.25;95127.94;5061141;28;20052;-48
2022/02/20 08:35:08;;;;;;;22.50;11.00;;;;;;;9.49;57.73;95132.47;5060307;28;20048;-46
2022/02/20 08:37:40;;;;;;;28.70;12.23;;;;;;;9.75;59.06;95132.19;5059693;28;20045;-49
2022/02/20 08:40:07;;;;;;;24.65;11.98;;;;;;;9.73;57.20;95129.03;5062105;28;20052;-47
2022/02/20 08:42:34;;;;;;;25.90;13.68;;;;;;;9.99;56.46;95121.91;5054642;28;20048;-47
2022/02/20 08:45:01;;;;;;;28.17;12.55;;;;;;;10.23;54.86;95109.00;5055985;28;20120;-47
2022/02/20 08:47:28;;;;;;;22.67;11.23;;;;;;;10.44;54.64;95111.13;5058266;28;20048;-47
2022/02/20 08:49:55;;;;;;;26.15;13.20;;;;;;;10.61;54.83;95102.69;5059908;28;20526;-50
2022/02/20 08:52:22;;;;;;;24.17;12.35;;;;;;;10.81;53.09;95103.16;5057119;28;20060;-47
2022/02/20 08:54:50;;;;;;;26.05;11.48;;;;;;;10.95;52.46;95105.53;5058357;28;20102;-51
2022/02/20 08:57:17;;;;;;;19.88;10.20;;;;;;;11.14;52.60;95101.78;5058490;28;20063;-48
2022/02/20 08:59:45;;;;;;;19.50;10.18;;;;;;;11.40;50.86;95104.97;5057943;28;20052;-49
2022/02/20 09:02:12;;;;;;;19.13;10.60;;;;;;;11.48;50.54;95107.22;5056847;28;20060;-49
2022/02/20 09:04:39;;;;;;;18.58;9.48;;;;;;;11.71;50.15;95105.59;5053905;28;20047;-48
2022/02/20 09:07:07;;;;;;;17.75;8.52;;;;;;;11.83;49.51;95099.31;5061445;28;20044;-48
2022/02/20 09:09:34;;;;;;;17.25;8.25;;;;;;;11.71;49.40;95100.38;5059870;28;20048;-50
2022/02/20 09:12:01;;;;;;;17.67;7.82;;;;;;;11.88;49.71;95101.22;5057377;28;20049;-50
2022/02/20 09:14:28;;;;;;;20.70;10.00;;;;;;;12.09;49.42;95099.03;5056704;28;20048;-49
2022/02/20 09:16:54;;;;;;;27.38;9.60;;;;;;;12.16;48.71;95113.53;5057158;28;20060;-50
2022/02/20 09:19:21;;;;;;;18.63;10.73;;;;;;;12.16;48.38;95108.31;5060903;28;20131;-49
2022/02/20 09:21:48;;;;;;;17.90;10.02;;;;;;;11.99;48.48;95108.25;5058746;28;20048;-47
2022/02/20 09:24:15;;;;;;;20.15;10.25;;;;;;;12.11;48.22;95104.81;5055443;28;20045;-47
2022/02/20 09:26:41;;;;;;;18.50;9.75;;;;;;;12.02;48.11;95102.56;5060090;28;20052;-46
2022/02/20 09:29:08;;;;;;;18.05;9.68;;;;;;;11.99;48.45;95105.66;5058691;28;20047;-51
2022/02/20 09:31:35;;;;;;;16.63;9.55;;;;;;;11.98;48.06;95098.06;5056065;28;20052;-48
2022/02/20 09:34:02;;;;;;;21.38;7.60;;;;;;;11.90;48.03;95088.75;5057718;28;20387;-46
2022/02/20 09:36:29;;;;;;;18.65;8.45;;;;;;;11.89;48.26;95074.09;5058717;28;20059;-47
2022/02/20 09:38:56;;;;;;;22.38;9.88;;;;;;;11.72;49.15;95071.44;5059086;28;20045;-51
2022/02/20 09:41:31;;;;;;;20.90;8.57;;;;;;;11.71;49.44;95063.84;5060264;28;20052;-51
2022/02/20 09:44:00;;;;;;;25.08;9.70;;;;;;;11.79;50.17;95073.91;5055864;28;20044;-46
2022/02/20 09:46:30;;;;;;;22.95;9.75;;;;;;;12.00;48.89;95075.91;5056227;28;20094;-49
2022/02/20 09:48:59;;;;;;;30.35;9.68;;;;;;;12.23;46.97;95072.41;5058976;28;20045;-47
2022/02/20 09:51:28;;;;;;;15.85;10.07;;;;;;;12.32;47.24;95070.19;5057515;28;20056;-50
2022/02/20 09:53:56;;;;;;;19.42;8.40;;;;;;;12.49;45.02;95072.81;5056390;28;20063;-48
2022/02/20 09:56:24;;;;;;;17.27;9.00;;;;;;;12.79;44.81;95077.72;5057759;28;20053;-49
2022/02/20 09:58:50;;;;;;;14.90;7.82;;;;;;;12.98;45.06;95077.47;5053207;28;20055;-50
2022/02/20 10:01:17;;;;;;;18.77;7.82;;;;;;;12.96;44.08;95063.84;5056301;28;20064;-49
2022/02/20 10:03:47;;;;;;;10.55;6.15;;;;;;;12.83;44.90;95072.81;5054650;28;20036;-48
2022/02/20 10:06:23;;;;;;;15.85;7.65;;;;;;;12.96;44.42;95075.13;5052467;28;20060;-47
2022/02/20 10:08:52;;;;;;;7.40;3.92;;;;;;;12.87;41.44;95071.31;5055707;28;20048;-46
2022/02/20 10:11:28;;;;;;;10.60;5.60;;;;;;;13.10;41.38;95049.41;5055133;28;20073;-46
2022/02/20 10:14:17;;;;;;;10.50;4.78;;;;;;;13.24;42.05;95054.31;5059766;28;20055;-47
2022/02/20 10:16:44;;;;;;;10.20;5.10;;;;;;;13.11;42.64;95045.78;5058242;28;20053;-46
2022/02/20 10:19:32;;;;;;;12.50;6.18;;;;;;;13.29;43.57;95046.50;5057560;28;20493;-46
2022/02/20 10:22:25;;;;;;;13.00;6.40;;;;;;;13.49;44.88;95036.34;5058446;28;20159;-46
2022/02/20 10:25:13;;;;;;;17.48;7.63;;;;;;;13.61;44.44;95032.81;5060089;28;20071;-46
2022/02/20 10:27:58;;;;;;;15.32;8.15;;;;;;;13.60;45.24;95031.25;5058273;28;20055;-46
2022/02/20 10:30:38;;;;;;;13.60;7.05;;;;;;;13.41;44.78;95022.91;5056264;28;20060;-51
2022/02/20 10:33:10;;;;;;;16.73;7.30;;;;;;;13.49;44.65;95020.66;5056860;28;20474;-46
2022/02/20 10:35:42;;;;;;;23.45;10.77;;;;;;;13.38;45.33;95013.72;5058238;28;20067;-47
2022/02/20 10:38:17;;;;;;;14.13;5.38;;;;;;;13.05;45.45;95012.75;5054107;28;20051;-49
2022/02/20 10:40:47;;;;;;;13.73;6.47;;;;;;;13.06;46.06;95006.50;5058825;28;20123;-48
2022/02/20 10:43:24;;;;;;;11.18;5.97;;;;;;;12.92;45.79;95007.88;5056292;28;20072;-47
2022/02/20 10:46:04;;;;;;;11.68;5.75;;;;;;;12.85;46.73;95002.00;5060177;28;20041;-51
2022/02/20 10:48:37;;;;;;;7.78;4.35;;;;;;;12.92;46.35;94995.56;5064184;28;20157;-46
2022/02/20 10:51:04;;;;;;;9.27;5.13;;;;;;;12.74;45.63;94991.41;5064372;28;20052;-47
2022/02/20 10:53:32;;;;;;;9.75;5.47;;;;;;;12.82;46.62;94991.00;5062265;28;20482;-49
2022/02/20 10:56:02;;;;;;;11.52;6.32;;;;;;;13.05;46.18;94983.97;5064174;28;20052;-47
2022/02/20 10:58:31;;;;;;;10.77;5.30;;;;;;;13.17;45.16;94976.81;5064434;28;20052;-46
2022/02/20 11:01:00;;;;;;;9.40;5.47;;;;;;;13.23;45.51;94975.03;5064506;28;20048;-48
2022/02/20 11:03:30;;;;;;;13.13;5.72;;;;;;;13.26;45.27;94973.78;5060191;28;20041;-46
2022/02/20 11:05:58;;;;;;;25.80;10.25;;;;;;;13.39;45.50;94973.44;5062666;28;20492;-47
2022/02/20 11:08:27;;;;;;;18.70;10.20;;;;;;;13.64;45.54;94979.97;5061347;28;20045;-46
2022/02/20 11:10:55;;;;;;;12.43;8.02;;;;;;;13.50;45.30;94969.88;5064622;28;20456;-47
2022/02/20 11:13:23;;;;;;;14.15;6.70;;;;;;;13.75;44.95;94961.50;5062499;28;20464;-48
2022/02/20 11:15:54;;;;;;;15.65;7.80;;;;;;;13.86;44.73;94965.00;5063054;28;20048;-47
2022/02/20 11:18:22;;;;;;;13.65;7.28;;;;;;;14.09;44.44;94955.28;5057656;28;20526;-47
2022/02/20 11:20:52;;;;;;;14.32;7.82;;;;;;;14.34;44.19;94950.22;5062917;28;20051;-47
2022/02/20 11:23:29;;;;;;;14.95;6.40;;;;;;;14.49;42.54;94943.50;5063590;28;20044;-49
2022/02/20 11:25:59;;;;;;;16.90;7.18;;;;;;;14.53;43.06;94944.56;5063273;28;20052;-47
2022/02/20 11:28:26;;;;;;;12.90;6.72;;;;;;;14.40;42.87;94945.03;5063187;28;20075;-45
2022/02/20 11:30:53;;;;;;;14.48;6.60;;;;;;;14.29;43.36;94944.94;5063602;28;20391;-45
2022/02/20 11:33:21;;;;;;;12.20;6.93;;;;;;;14.04;44.17;94947.38;5063442;28;20060;-46
2022/02/20 11:35:50;;;;;;;15.52;7.68;;;;;;;13.91;44.61;94946.72;5063682;28;20044;-47
2022/02/20 11:38:20;;;;;;;14.75;6.10;;;;;;;13.80;45.56;94945.06;5061814;28;20472;-47
2022/02/20 11:41:02;;;;;;;26.02;10.02;;;;;;;13.55;45.75;94946.38;5063118;28;20052;-48
2022/02/20 11:43:44;;;;;;;15.55;7.75;;;;;;;13.72;45.77;94940.25;5063058;28;20054;-48